createdAt,value
2018-07-13T00:02:02.469Z,24.05
2018-07-13T00:04:31.570Z,24.07
2018-07-13T00:07:00.744Z,24.05
2018-07-13T00:09:29.684Z,23.96
2018-07-13T00:11:58.558Z,23.96
2018-07-13T00:14:27.788Z,23.94
2018-07-13T00:16:57.970Z,23.90
2018-07-13T00:19:27.546Z,23.87
2018-07-13T00:21:56.625Z,23.85
2018-07-13T00:24:25.633Z,23.78
2018-07-13T00:26:54.594Z,23.75
2018-07-13T00:29:23.833Z,23.71
2018-07-13T00:31:52.944Z,23.63
2018-07-13T00:34:22.075Z,23.61
2018-07-13T00:36:51.629Z,23.57
2018-07-13T00:39:20.682Z,23.55
2018-07-13T00:41:49.723Z,23.50
2018-07-13T00:44:19.567Z,23.50
2018-07-13T00:46:48.528Z,23.43
2018-07-13T00:49:17.611Z,23.46
2018-07-13T00:51:47.203Z,23.44
2018-07-13T00:54:16.213Z,23.42
2018-07-13T00:56:45.434Z,23.39
2018-07-13T00:59:14.634Z,23.37
2018-07-13T01:01:43.684Z,23.29
2018-07-13T01:04:12.856Z,23.28
2018-07-13T01:06:41.866Z,23.29
2018-07-13T01:09:10.947Z,23.29
2018-07-13T01:11:40.155Z,23.27
2018-07-13T01:14:10.389Z,23.22
2018-07-13T01:16:39.502Z,23.22
2018-07-13T01:19:08.575Z,23.19
2018-07-13T01:21:38.478Z,23.13
2018-07-13T01:24:07.670Z,23.07
2018-07-13T01:26:36.608Z,23.00
2018-07-13T01:29:05.763Z,22.98
2018-07-13T01:31:34.843Z,22.97
2018-07-13T01:34:03.987Z,22.98
2018-07-13T01:36:33.138Z,22.93
2018-07-13T01:39:02.075Z,22.92
2018-07-13T01:41:31.075Z,22.88
2018-07-13T01:44:00.452Z,22.85
2018-07-13T01:46:29.419Z,22.85
2018-07-13T01:48:58.523Z,22.80
2018-07-13T01:51:28.642Z,22.75
2018-07-13T01:53:57.783Z,22.73
2018-07-13T01:56:26.784Z,22.72
2018-07-13T01:58:55.907Z,22.71
2018-07-13T02:01:24.912Z,22.70
2018-07-13T02:03:53.992Z,22.68
2018-07-13T02:06:23.169Z,22.68
2018-07-13T02:08:52.302Z,22.59
2018-07-13T02:11:21.427Z,22.58
2018-07-13T02:13:50.754Z,22.62
2018-07-13T02:16:19.718Z,22.53
2018-07-13T02:18:48.785Z,22.47
2018-07-13T02:21:17.982Z,22.45
2018-07-13T02:23:47.085Z,22.42
2018-07-13T02:26:16.130Z,22.37
2018-07-13T02:28:45.788Z,22.34
2018-07-13T02:31:14.731Z,22.34
2018-07-13T02:33:43.799Z,22.30
2018-07-13T02:36:13.219Z,22.29
2018-07-13T02:38:42.489Z,22.32
2018-07-13T02:41:11.484Z,22.22
2018-07-13T02:43:40.552Z,22.16
2018-07-13T02:46:09.543Z,22.09
2018-07-13T02:48:38.646Z,22.06
2018-07-13T02:51:07.765Z,22.12
2018-07-13T02:53:36.747Z,22.19
2018-07-13T02:56:06.431Z,22.27
2018-07-13T02:58:35.562Z,22.29
2018-07-13T03:01:04.811Z,22.26
2018-07-13T03:03:33.798Z,22.20
2018-07-13T03:06:03.010Z,22.18
2018-07-13T03:08:31.933Z,22.19
2018-07-13T03:11:01.014Z,22.19
2018-07-13T03:13:30.266Z,22.27
2018-07-13T03:15:59.267Z,22.34
2018-07-13T03:18:28.352Z,22.40
2018-07-13T03:20:57.559Z,22.48
2018-07-13T03:23:26.552Z,22.63
2018-07-13T03:25:56.200Z,22.74
2018-07-13T03:28:25.584Z,22.91
2018-07-13T03:30:54.572Z,23.06
2018-07-13T03:33:23.811Z,23.16
2018-07-13T03:35:54.160Z,23.25
2018-07-13T03:38:23.166Z,23.32
2018-07-13T03:40:52.095Z,23.38
2018-07-13T03:43:21.167Z,23.46
2018-07-13T03:45:50.316Z,23.57
2018-07-13T03:48:19.372Z,23.68
2018-07-13T03:50:48.717Z,23.78
2018-07-13T03:53:17.574Z,23.87
2018-07-13T03:55:46.626Z,23.97
2018-07-13T03:58:15.884Z,24.05
2018-07-13T04:00:44.940Z,24.20
2018-07-13T04:03:13.918Z,24.34
2018-07-13T04:05:43.460Z,24.38
2018-07-13T04:08:12.424Z,24.54
2018-07-13T04:10:41.483Z,24.71
2018-07-13T04:13:10.587Z,24.91
2018-07-13T04:15:39.792Z,25.04
2018-07-13T04:18:13.287Z,25.09
2018-07-13T04:20:42.406Z,25.25
2018-07-13T04:23:11.611Z,25.26
2018-07-13T04:25:40.877Z,25.15
2018-07-13T04:28:10.015Z,25.48
2018-07-13T04:30:39.036Z,25.65
2018-07-13T04:33:08.154Z,25.78
2018-07-13T04:35:37.461Z,25.87
2018-07-13T04:38:12.658Z,26.03
2018-07-13T04:40:41.838Z,26.22
2018-07-13T04:43:14.427Z,26.34
2018-07-13T04:45:56.646Z,26.24
2018-07-13T04:48:26.321Z,26.63
2018-07-13T04:50:59.936Z,26.77
2018-07-13T04:53:30.768Z,27.10
2018-07-13T04:56:00.108Z,27.38
2018-07-13T04:58:29.222Z,27.30
2018-07-13T05:00:58.479Z,27.52
2018-07-13T05:03:27.702Z,27.58
2018-07-13T05:05:56.952Z,27.85
2018-07-13T05:08:26.268Z,27.96
2018-07-13T05:10:55.518Z,28.27
2018-07-13T05:13:24.461Z,28.60
2018-07-13T05:15:54.391Z,28.46
2018-07-13T05:18:23.599Z,28.64
2018-07-13T05:20:52.625Z,28.85
2018-07-13T05:23:22.128Z,28.90
2018-07-13T05:25:51.451Z,29.09
2018-07-13T05:28:20.676Z,29.24
2018-07-13T05:30:51.851Z,29.55
2018-07-13T05:33:21.064Z,29.82
2018-07-13T05:35:50.506Z,29.94
2018-07-13T05:38:19.856Z,30.11
2018-07-13T05:40:49.080Z,29.88
2018-07-13T05:43:18.391Z,30.06
2018-07-13T05:45:47.812Z,29.94
2018-07-13T05:48:16.996Z,29.96
2018-07-13T05:50:46.374Z,30.30
2018-07-13T05:53:15.621Z,30.66
2018-07-13T05:55:44.739Z,30.48
2018-07-13T05:58:13.914Z,30.52
2018-07-13T06:00:43.403Z,30.71
2018-07-13T06:03:12.572Z,31.06
2018-07-13T06:05:41.786Z,30.95
2018-07-13T06:08:11.227Z,30.60
2018-07-13T06:10:40.348Z,31.42
2018-07-13T06:13:09.603Z,31.80
2018-07-13T06:15:38.751Z,31.98
2018-07-13T06:18:08.157Z,32.10
2018-07-13T06:20:37.203Z,32.08
2018-07-13T06:23:06.532Z,31.46
2018-07-13T06:25:35.333Z,30.82
2018-07-13T06:28:04.402Z,30.20
2018-07-13T06:30:33.768Z,29.72
2018-07-13T06:33:02.767Z,29.55
2018-07-13T06:35:31.662Z,29.43
2018-07-13T06:38:00.645Z,29.35
2018-07-13T06:40:29.654Z,29.28
2018-07-13T06:42:58.539Z,29.13
2018-07-13T06:45:27.725Z,29.17
2018-07-13T06:47:56.823Z,29.00
2018-07-13T06:50:28.140Z,29.02
2018-07-13T06:52:57.253Z,28.97
2018-07-13T06:55:26.131Z,28.99
2018-07-13T06:58:06.190Z,28.90
2018-07-13T07:01:06.594Z,28.97
2018-07-13T07:03:42.385Z,28.52
2018-07-13T07:06:14.919Z,28.73
2018-07-13T07:08:49.636Z,28.84
2018-07-13T07:11:19.185Z,28.88
2018-07-13T07:13:48.375Z,28.81
2018-07-13T07:16:17.561Z,28.95
2018-07-13T07:18:46.458Z,29.05
2018-07-13T07:21:15.421Z,29.13
2018-07-13T07:23:44.390Z,29.24
2018-07-13T07:26:13.364Z,29.19
2018-07-13T07:28:43.011Z,29.09
2018-07-13T07:31:12.001Z,29.19
2018-07-13T07:33:41.067Z,29.29
2018-07-13T07:36:10.292Z,29.34
2018-07-13T07:38:39.364Z,29.46
2018-07-13T07:41:08.370Z,29.51
2018-07-13T07:43:37.863Z,29.49
2018-07-13T07:46:06.911Z,29.50
2018-07-13T07:48:35.802Z,29.51
2018-07-13T07:51:04.873Z,29.54
2018-07-13T07:53:33.923Z,29.54
2018-07-13T07:56:02.839Z,29.61
2018-07-13T07:58:31.961Z,29.72
2018-07-13T08:01:00.881Z,29.77
2018-07-13T08:03:30.813Z,29.75
2018-07-13T08:05:59.985Z,29.74
2018-07-13T08:08:28.898Z,29.81
2018-07-13T08:10:57.800Z,29.89
2018-07-13T08:13:26.846Z,29.93
2018-07-13T08:15:55.771Z,30.04
2018-07-13T08:18:24.613Z,30.15
2018-07-13T08:20:53.892Z,30.24
2018-07-13T08:23:23.008Z,30.23
2018-07-13T08:25:52.565Z,30.32
2018-07-13T08:28:22.244Z,30.32
2018-07-13T08:30:55.612Z,30.33
2018-07-13T08:33:24.637Z,30.48
2018-07-13T08:35:53.564Z,30.57
2018-07-13T08:38:22.591Z,30.79
2018-07-13T08:40:51.896Z,30.67
2018-07-13T08:43:20.924Z,30.62
2018-07-13T08:45:49.935Z,30.74
2018-07-13T08:48:19.397Z,30.85
2018-07-13T08:50:48.554Z,30.95
2018-07-13T08:53:17.712Z,31.18
2018-07-13T08:55:46.950Z,31.22
2018-07-13T08:58:16.990Z,31.24
2018-07-13T09:00:46.148Z,31.30
2018-07-13T09:03:15.237Z,31.14
2018-07-13T09:05:44.252Z,31.24
2018-07-13T09:08:13.324Z,31.26
2018-07-13T09:10:42.940Z,30.99
2018-07-13T09:13:12.132Z,31.13
2018-07-13T09:15:41.062Z,31.31
2018-07-13T09:18:10.197Z,31.46
2018-07-13T09:20:39.251Z,31.52
2018-07-13T09:23:08.252Z,31.58
2018-07-13T09:25:37.276Z,31.59
2018-07-13T09:28:06.370Z,31.68
2018-07-13T09:30:35.283Z,31.76
2018-07-13T09:33:04.760Z,31.91
2018-07-13T09:35:33.780Z,32.17
2018-07-13T09:38:02.820Z,32.32
2018-07-13T09:40:31.956Z,32.39
2018-07-13T09:43:00.884Z,32.34
2018-07-13T09:45:29.959Z,32.26
2018-07-13T09:47:58.938Z,32.41
2018-07-13T09:50:27.948Z,32.27
2018-07-13T09:52:57.005Z,32.23
2018-07-13T09:55:26.319Z,32.31
2018-07-13T09:57:55.427Z,32.21
2018-07-13T10:00:28.798Z,32.12
2018-07-13T10:02:57.850Z,32.22
2018-07-13T10:05:26.910Z,32.16
2018-07-13T10:07:57.077Z,32.24
2018-07-13T10:10:26.005Z,32.29
2018-07-13T10:12:55.176Z,32.36
2018-07-13T10:15:24.248Z,32.54
2018-07-13T10:17:53.261Z,32.51
2018-07-13T10:20:22.329Z,32.61
2018-07-13T10:22:51.676Z,32.75
2018-07-13T10:25:20.797Z,32.85
2018-07-13T10:27:49.912Z,32.78
2018-07-13T10:30:19.158Z,32.78
2018-07-13T10:32:48.293Z,32.93
2018-07-13T10:35:17.391Z,32.71
2018-07-13T10:37:46.456Z,32.95
2018-07-13T10:40:15.457Z,32.97
2018-07-13T10:42:44.275Z,33.01
2018-07-13T10:45:13.253Z,32.97
2018-07-13T10:47:42.318Z,33.07
2018-07-13T10:50:11.141Z,33.09
2018-07-13T10:52:40.316Z,33.13
2018-07-13T10:55:09.284Z,33.36
2018-07-13T10:57:38.271Z,33.53
2018-07-13T11:00:08.405Z,33.33
2018-07-13T11:02:37.345Z,33.36
2018-07-13T11:05:06.322Z,33.36
2018-07-13T11:07:35.527Z,33.34
2018-07-13T11:10:04.452Z,33.29
2018-07-13T11:12:33.495Z,33.46
2018-07-13T11:15:02.523Z,33.45
2018-07-13T11:17:31.339Z,33.24
2018-07-13T11:20:00.282Z,33.40
2018-07-13T11:22:29.212Z,33.63
2018-07-13T11:24:58.135Z,33.86
2018-07-13T11:27:27.031Z,33.80
2018-07-13T11:29:56.424Z,33.87
2018-07-13T11:32:27.206Z,34.08
2018-07-13T11:34:56.284Z,34.05
2018-07-13T11:37:25.678Z,33.98
2018-07-13T11:39:54.497Z,33.97
2018-07-13T11:42:24.794Z,34.24
2018-07-13T11:44:53.883Z,34.22
2018-07-13T11:47:23.686Z,34.20
2018-07-13T11:49:53.114Z,34.23
2018-07-13T11:52:21.987Z,34.25
2018-07-13T11:54:51.114Z,34.21
2018-07-13T11:57:20.240Z,34.35
2018-07-13T11:59:49.239Z,34.53
2018-07-13T12:02:18.527Z,34.71
2018-07-13T12:04:47.620Z,34.77
2018-07-13T12:07:16.450Z,34.67
2018-07-13T12:09:45.417Z,34.78
2018-07-13T12:12:14.649Z,34.70
2018-07-13T12:14:43.588Z,34.61
2018-07-13T12:17:12.620Z,34.64
2018-07-13T12:19:42.005Z,34.56
2018-07-13T12:22:10.992Z,34.58
2018-07-13T12:24:40.079Z,34.36
2018-07-13T12:27:08.994Z,34.37
2018-07-13T12:29:37.836Z,34.45
2018-07-13T12:32:06.731Z,34.73
2018-07-13T12:34:35.619Z,34.84
2018-07-13T12:37:04.552Z,35.25
2018-07-13T12:39:33.496Z,35.21
2018-07-13T12:42:02.498Z,35.37
2018-07-13T12:44:31.439Z,35.38
2018-07-13T12:47:00.351Z,34.83
2018-07-13T12:49:29.733Z,34.63
2018-07-13T12:51:58.727Z,34.38
2018-07-13T12:54:27.832Z,33.78
2018-07-13T12:56:56.807Z,32.98
2018-07-13T12:59:25.945Z,33.39
2018-07-13T13:01:54.994Z,33.21
2018-07-13T13:04:24.028Z,32.81
2018-07-13T13:06:53.041Z,32.93
2018-07-13T13:09:21.940Z,32.61
2018-07-13T13:11:51.053Z,32.34
2018-07-13T13:14:19.943Z,32.12
2018-07-13T13:16:48.892Z,31.63
2018-07-13T13:19:17.808Z,31.36
2018-07-13T13:21:46.914Z,31.26
2018-07-13T13:24:16.193Z,30.91
2018-07-13T13:26:45.314Z,30.38
2018-07-13T13:29:14.300Z,29.97
2018-07-13T13:31:43.110Z,29.69
2018-07-13T13:34:12.570Z,28.74
2018-07-13T13:36:41.593Z,27.77
2018-07-13T13:39:10.425Z,27.27
2018-07-13T13:41:39.546Z,26.44
2018-07-13T13:44:08.466Z,25.32
2018-07-13T13:46:37.333Z,24.64
2018-07-13T13:49:06.296Z,24.31
2018-07-13T13:51:35.208Z,24.18
2018-07-13T13:54:04.145Z,23.75
2018-07-13T13:56:33.791Z,23.41
2018-07-13T13:59:02.657Z,23.21
2018-07-13T14:01:31.769Z,23.38
2018-07-13T14:04:00.743Z,23.75
2018-07-13T14:06:29.630Z,24.17
2018-07-13T14:08:58.723Z,24.76
2018-07-13T14:11:27.616Z,25.10
2018-07-13T14:13:56.737Z,25.32
2018-07-13T14:16:25.676Z,25.42
2018-07-13T14:18:55.031Z,25.54
2018-07-13T14:21:24.032Z,25.67
2018-07-13T14:23:52.948Z,25.73
2018-07-13T14:26:21.896Z,25.86
2018-07-13T14:28:50.792Z,26.00
2018-07-13T14:31:19.786Z,26.20
2018-07-13T14:33:48.951Z,26.46
2018-07-13T14:36:17.842Z,26.77
2018-07-13T14:38:46.776Z,26.85
2018-07-13T14:41:16.004Z,26.87
2018-07-13T14:43:44.957Z,27.01
2018-07-13T14:46:13.963Z,27.14
2018-07-13T14:48:43.217Z,27.32
2018-07-13T14:51:12.215Z,27.47
2018-07-13T14:53:41.207Z,27.57
2018-07-13T14:56:10.889Z,27.61
2018-07-13T14:58:39.809Z,27.55
2018-07-13T15:01:08.820Z,27.55
2018-07-13T15:03:38.513Z,27.72
2018-07-13T15:06:07.504Z,27.83
2018-07-13T15:08:36.391Z,27.89
2018-07-13T15:11:05.428Z,27.83
2018-07-13T15:13:34.387Z,27.77
2018-07-13T15:16:03.319Z,27.76
2018-07-13T15:18:32.320Z,27.73
2018-07-13T15:21:01.358Z,27.74
2018-07-13T15:23:30.237Z,27.75
2018-07-13T15:25:59.520Z,27.80
2018-07-13T15:28:28.641Z,27.81
2018-07-13T15:30:57.727Z,27.81
2018-07-13T15:33:26.906Z,27.89
2018-07-13T15:35:56.020Z,27.98
2018-07-13T15:38:25.084Z,27.92
2018-07-13T15:40:54.275Z,27.93
2018-07-13T15:43:24.793Z,27.92
2018-07-13T15:45:53.826Z,28.01
2018-07-13T15:48:23.245Z,28.11
2018-07-13T15:50:52.366Z,28.11
2018-07-13T15:53:21.379Z,28.22
2018-07-13T15:56:01.212Z,28.30
2018-07-13T15:58:30.348Z,28.37
2018-07-13T16:00:59.579Z,28.40
2018-07-13T16:03:34.629Z,28.45
2018-07-13T16:06:07.317Z,28.50
2018-07-13T16:08:38.958Z,28.63
2018-07-13T16:11:08.620Z,28.63
2018-07-13T16:13:37.894Z,28.67
2018-07-13T16:16:08.057Z,28.73
2018-07-13T16:18:40.246Z,28.85
2018-07-13T16:21:09.287Z,28.88
2018-07-13T16:23:38.577Z,28.97
2018-07-13T16:26:08.819Z,29.05
2018-07-13T16:28:37.906Z,29.14
2018-07-13T16:31:07.153Z,29.21
2018-07-13T16:33:36.530Z,29.22
2018-07-13T16:36:05.797Z,29.25
2018-07-13T16:38:34.832Z,29.15
2018-07-13T16:41:03.926Z,29.19
2018-07-13T16:43:39.711Z,29.31
2018-07-13T16:46:11.766Z,29.38
2018-07-13T16:48:40.872Z,29.40
2018-07-13T16:51:11.513Z,29.32
2018-07-13T16:53:42.300Z,29.34
2018-07-13T16:56:12.997Z,29.38
2018-07-13T16:58:42.218Z,29.41
2018-07-13T17:01:13.499Z,29.31
2018-07-13T17:03:44.647Z,29.26
2018-07-13T17:06:14.247Z,29.32
2018-07-13T17:08:43.607Z,29.28
2018-07-13T17:11:12.836Z,29.22
2018-07-13T17:13:41.862Z,29.16
2018-07-13T17:16:11.042Z,29.02
2018-07-13T17:18:40.037Z,28.97
2018-07-13T17:21:10.365Z,28.95
2018-07-13T17:23:39.540Z,28.86
2018-07-13T17:26:08.771Z,28.81
2018-07-13T17:28:39.021Z,28.77
2018-07-13T17:31:08.081Z,28.68
2018-07-13T17:33:38.278Z,28.68
2018-07-13T17:36:08.579Z,28.66
2018-07-13T17:38:38.455Z,28.59
2018-07-13T17:41:08.491Z,28.51
2018-07-13T17:43:38.673Z,28.39
2018-07-13T17:46:13.537Z,28.27
2018-07-13T17:48:43.019Z,28.19
2018-07-13T17:51:15.395Z,28.15
2018-07-13T17:53:44.521Z,28.08
2018-07-13T17:56:13.657Z,27.99
2018-07-13T17:58:42.899Z,27.86
2018-07-13T18:01:11.944Z,27.82
2018-07-13T18:03:41.074Z,27.72
2018-07-13T18:06:10.159Z,27.65
2018-07-13T18:08:39.254Z,27.60
2018-07-13T18:11:08.247Z,27.47
2018-07-13T18:13:38.804Z,27.42
2018-07-13T18:16:07.840Z,27.31
2018-07-13T18:18:36.800Z,27.15
2018-07-13T18:21:05.749Z,26.97
2018-07-13T18:23:34.830Z,26.90
2018-07-13T18:26:03.997Z,26.78
2018-07-13T18:28:33.201Z,26.77
2018-07-13T18:31:02.241Z,26.74
2018-07-13T18:33:31.382Z,26.64
2018-07-13T18:36:00.315Z,26.61
2018-07-13T18:38:29.942Z,26.60
2018-07-13T18:40:58.829Z,26.55
2018-07-13T18:43:27.810Z,26.45
2018-07-13T18:45:57.324Z,26.40
2018-07-13T18:48:26.244Z,26.31
2018-07-13T18:50:55.416Z,26.23
2018-07-13T18:53:24.451Z,26.20
2018-07-13T18:55:53.481Z,26.18
2018-07-13T18:58:22.503Z,26.22
2018-07-13T19:00:52.759Z,26.16
2018-07-13T19:03:21.820Z,26.18
2018-07-13T19:05:51.000Z,26.20
2018-07-13T19:08:20.059Z,26.29
2018-07-13T19:10:49.247Z,26.29
2018-07-13T19:13:18.222Z,26.27
2018-07-13T19:15:47.722Z,26.19
2018-07-13T19:18:16.951Z,26.19
2018-07-13T19:20:45.996Z,26.20
2018-07-13T19:23:15.121Z,26.19
2018-07-13T19:25:44.110Z,26.22
2018-07-13T19:28:13.113Z,26.24
2018-07-13T19:30:42.377Z,26.24
2018-07-13T19:33:11.372Z,26.25
2018-07-13T19:35:40.790Z,26.23
2018-07-13T19:38:09.786Z,26.25
2018-07-13T19:40:39.467Z,26.25
2018-07-13T19:43:08.932Z,26.18
2018-07-13T19:45:38.850Z,26.16
2018-07-13T19:48:07.992Z,26.12
2018-07-13T19:50:37.136Z,26.06
2018-07-13T19:53:06.247Z,26.04
2018-07-13T19:55:35.701Z,26.01
2018-07-13T19:58:04.751Z,26.02
2018-07-13T20:00:34.022Z,25.99
2018-07-13T20:03:03.194Z,25.94
2018-07-13T20:05:32.353Z,25.93
2018-07-13T20:08:01.466Z,25.89
2018-07-13T20:10:30.541Z,25.90
2018-07-13T20:12:59.684Z,25.80
2018-07-13T20:15:28.835Z,25.77
2018-07-13T20:17:57.863Z,25.75
2018-07-13T20:20:27.060Z,25.72
2018-07-13T20:22:56.330Z,25.67
2018-07-13T20:25:25.518Z,25.65
2018-07-13T20:27:54.812Z,25.66
2018-07-13T20:30:23.906Z,25.66
2018-07-13T20:32:53.014Z,25.62
2018-07-13T20:35:22.164Z,25.63
2018-07-13T20:37:51.453Z,25.58
2018-07-13T20:40:20.568Z,25.56
2018-07-13T20:42:49.874Z,25.55
2018-07-13T20:45:18.926Z,25.60
2018-07-13T20:47:48.075Z,25.57
2018-07-13T20:50:17.242Z,25.55
2018-07-13T20:52:46.249Z,25.50
2018-07-13T20:55:15.847Z,25.49
2018-07-13T20:57:45.566Z,25.44
2018-07-13T21:00:15.480Z,25.45
2018-07-13T21:02:44.505Z,25.44
2018-07-13T21:05:14.277Z,25.42
2018-07-13T21:07:43.454Z,25.41
2018-07-13T21:10:12.612Z,25.38
2018-07-13T21:12:41.879Z,25.33
2018-07-13T21:15:10.878Z,25.23
2018-07-13T21:17:39.872Z,25.15
2018-07-13T21:20:09.289Z,25.12
2018-07-13T21:22:39.655Z,25.06
2018-07-13T21:25:09.223Z,25.01
2018-07-13T21:27:38.219Z,25.03
2018-07-13T21:30:07.455Z,24.92
2018-07-13T21:32:36.934Z,24.79
2018-07-13T21:35:08.040Z,24.76
2018-07-13T21:37:37.193Z,24.73
2018-07-13T21:40:06.226Z,24.69
2018-07-13T21:42:35.264Z,24.65
2018-07-13T21:45:04.677Z,24.52
2018-07-13T21:47:33.642Z,24.44
2018-07-13T21:50:02.781Z,24.42
2018-07-13T21:52:32.219Z,24.44
2018-07-13T21:55:01.413Z,24.54
2018-07-13T21:57:30.514Z,24.46
2018-07-13T21:59:59.669Z,24.37
2018-07-13T22:02:28.517Z,24.34
2018-07-13T22:04:57.538Z,24.30
2018-07-13T22:07:28.208Z,24.34
2018-07-13T22:09:57.314Z,24.40
2018-07-13T22:12:26.267Z,24.40
2018-07-13T22:14:55.949Z,24.36
2018-07-13T22:17:24.890Z,24.34
2018-07-13T22:19:53.997Z,24.32
2018-07-13T22:22:27.187Z,24.25
2018-07-13T22:24:56.204Z,24.20
2018-07-13T22:27:25.324Z,24.21
2018-07-13T22:29:54.345Z,24.20
2018-07-13T22:32:23.737Z,24.16
2018-07-13T22:34:52.831Z,24.13
2018-07-13T22:37:22.165Z,24.11
2018-07-13T22:39:52.072Z,24.09
2018-07-13T22:42:21.806Z,24.08
2018-07-13T22:44:51.426Z,24.07
2018-07-13T22:47:20.540Z,24.08
2018-07-13T22:49:49.481Z,24.08
2018-07-13T22:52:24.502Z,24.10
2018-07-13T22:54:53.484Z,24.10
2018-07-13T22:57:22.567Z,24.10
2018-07-13T22:59:52.420Z,24.07
2018-07-13T23:02:21.466Z,24.04
2018-07-13T23:04:50.460Z,24.05
2018-07-13T23:07:19.714Z,24.06
2018-07-13T23:09:48.573Z,24.02
2018-07-13T23:12:21.830Z,24.00
2018-07-13T23:14:50.839Z,23.95
2018-07-13T23:17:19.776Z,23.92
2018-07-13T23:19:48.884Z,23.95
2018-07-13T23:22:17.806Z,23.95
2018-07-13T23:24:46.952Z,23.98
2018-07-13T23:27:16.298Z,23.98
2018-07-13T23:29:46.359Z,23.98
2018-07-13T23:32:15.416Z,24.01
2018-07-13T23:34:44.846Z,23.99
2018-07-13T23:37:13.726Z,24.03
2018-07-13T23:39:42.772Z,24.04
2018-07-13T23:42:12.103Z,24.07
2018-07-13T23:44:41.264Z,24.09
2018-07-13T23:47:10.142Z,24.11
2018-07-13T23:49:39.634Z,24.16
2018-07-13T23:52:08.607Z,24.15
2018-07-13T23:54:37.571Z,24.14
2018-07-13T23:57:07.090Z,24.13
2018-07-13T23:59:36.092Z,24.09
